sensor_id;sensor_type;location;lat;lon;timestamp;P1;durP1;ratioP1;P2;durP2;ratioP2
51358;SDS011;37448;51.588;7.248;2022-12-29T00:00:29;2.70;;;1.20;;
51358;SDS011;37448;51.588;7.248;2022-12-29T00:02:29;1.58;;;0.82;;
51358;SDS011;37448;51.588;7.248;2022-12-29T00:04:29;2.58;;;1.02;;
51358;SDS011;37448;51.588;7.248;2022-12-29T00:06:30;1.48;;;1.00;;
51358;SDS011;37448;51.588;7.248;2022-12-29T00:08:30;2.17;;;0.90;;
51358;SDS011;37448;51.588;7.248;2022-12-29T00:10:40;1.88;;;0.90;;
51358;SDS011;37448;51.588;7.248;2022-12-29T00:12:40;2.75;;;1.08;;
51358;SDS011;37448;51.588;7.248;2022-12-29T00:14:59;1.65;;;0.80;;
51358;SDS011;37448;51.588;7.248;2022-12-29T00:17:32;3.97;;;0.98;;
51358;SDS011;37448;51.588;7.248;2022-12-29T00:19:32;3.63;;;0.90;;
51358;SDS011;37448;51.588;7.248;2022-12-29T00:21:50;4.05;;;1.15;;
51358;SDS011;37448;51.588;7.248;2022-12-29T00:24:14;2.33;;;0.90;;
51358;SDS011;37448;51.588;7.248;2022-12-29T00:26:27;3.10;;;0.95;;
51358;SDS011;37448;51.588;7.248;2022-12-29T00:28:46;1.55;;;0.90;;
51358;SDS011;37448;51.588;7.248;2022-12-29T00:31:06;2.55;;;1.00;;
51358;SDS011;37448;51.588;7.248;2022-12-29T00:33:30;2.47;;;1.20;;
51358;SDS011;37448;51.588;7.248;2022-12-29T00:35:52;1.52;;;0.90;;
51358;SDS011;37448;51.588;7.248;2022-12-29T00:37:55;3.92;;;1.08;;
51358;SDS011;37448;51.588;7.248;2022-12-29T00:40:17;2.50;;;0.90;;
51358;SDS011;37448;51.588;7.248;2022-12-29T00:42:40;5.57;;;0.95;;
51358;SDS011;37448;51.588;7.248;2022-12-29T00:45:00;2.58;;;1.10;;
51358;SDS011;37448;51.588;7.248;2022-12-29T00:47:00;2.33;;;0.88;;
51358;SDS011;37448;51.588;7.248;2022-12-29T00:51:22;3.28;;;1.33;;
51358;SDS011;37448;51.588;7.248;2022-12-29T00:53:23;2.75;;;1.25;;
51358;SDS011;37448;51.588;7.248;2022-12-29T00:55:23;3.65;;;1.20;;
51358;SDS011;37448;51.588;7.248;2022-12-29T00:57:24;1.33;;;0.85;;
51358;SDS011;37448;51.588;7.248;2022-12-29T00:59:24;2.08;;;1.00;;
51358;SDS011;37448;51.588;7.248;2022-12-29T01:01:25;3.15;;;1.30;;
51358;SDS011;37448;51.588;7.248;2022-12-29T01:03:25;2.28;;;1.30;;
51358;SDS011;37448;51.588;7.248;2022-12-29T01:05:26;1.90;;;1.00;;
51358;SDS011;37448;51.588;7.248;2022-12-29T01:07:27;2.65;;;1.20;;
51358;SDS011;37448;51.588;7.248;2022-12-29T01:09:27;1.70;;;1.05;;
51358;SDS011;37448;51.588;7.248;2022-12-29T01:11:46;2.28;;;1.00;;
51358;SDS011;37448;51.588;7.248;2022-12-29T01:13:47;3.40;;;1.40;;
51358;SDS011;37448;51.588;7.248;2022-12-29T01:15:50;2.80;;;1.10;;
51358;SDS011;37448;51.588;7.248;2022-12-29T01:17:52;2.40;;;1.23;;
51358;SDS011;37448;51.588;7.248;2022-12-29T01:19:52;3.10;;;1.02;;
51358;SDS011;37448;51.588;7.248;2022-12-29T01:21:52;2.83;;;1.20;;
51358;SDS011;37448;51.588;7.248;2022-12-29T01:23:53;1.48;;;0.77;;
51358;SDS011;37448;51.588;7.248;2022-12-29T01:25:54;1.45;;;1.00;;
51358;SDS011;37448;51.588;7.248;2022-12-29T01:27:55;2.10;;;1.00;;
51358;SDS011;37448;51.588;7.248;2022-12-29T01:29:55;2.92;;;0.90;;
51358;SDS011;37448;51.588;7.248;2022-12-29T01:31:56;2.63;;;1.05;;
51358;SDS011;37448;51.588;7.248;2022-12-29T01:33:56;2.10;;;0.73;;
51358;SDS011;37448;51.588;7.248;2022-12-29T01:36:03;2.15;;;1.10;;
51358;SDS011;37448;51.588;7.248;2022-12-29T01:38:05;1.98;;;0.82;;
51358;SDS011;37448;51.588;7.248;2022-12-29T01:40:05;2.95;;;0.93;;
51358;SDS011;37448;51.588;7.248;2022-12-29T01:42:11;2.20;;;1.00;;
51358;SDS011;37448;51.588;7.248;2022-12-29T01:46:55;2.25;;;1.23;;
51358;SDS011;37448;51.588;7.248;2022-12-29T01:49:02;2.00;;;0.90;;
51358;SDS011;37448;51.588;7.248;2022-12-29T01:51:11;1.10;;;0.65;;
51358;SDS011;37448;51.588;7.248;2022-12-29T01:53:13;0.77;;;0.50;;
51358;SDS011;37448;51.588;7.248;2022-12-29T01:55:37;1.30;;;0.63;;
51358;SDS011;37448;51.588;7.248;2022-12-29T01:57:43;2.42;;;0.60;;
51358;SDS011;37448;51.588;7.248;2022-12-29T01:59:52;1.60;;;0.65;;
51358;SDS011;37448;51.588;7.248;2022-12-29T02:01:57;1.42;;;0.70;;
51358;SDS011;37448;51.588;7.248;2022-12-29T02:06:21;1.40;;;0.82;;
51358;SDS011;37448;51.588;7.248;2022-12-29T02:08:23;1.13;;;0.68;;
51358;SDS011;37448;51.588;7.248;2022-12-29T02:10:27;1.15;;;0.50;;
51358;SDS011;37448;51.588;7.248;2022-12-29T02:12:29;0.90;;;0.60;;
51358;SDS011;37448;51.588;7.248;2022-12-29T02:14:30;1.98;;;0.50;;
51358;SDS011;37448;51.588;7.248;2022-12-29T02:18:57;1.42;;;0.60;;
51358;SDS011;37448;51.588;7.248;2022-12-29T02:30:45;1.10;;;0.40;;
51358;SDS011;37448;51.588;7.248;2022-12-29T02:33:15;0.68;;;0.38;;
51358;SDS011;37448;51.588;7.248;2022-12-29T02:35:35;1.58;;;0.55;;
51358;SDS011;37448;51.588;7.248;2022-12-29T02:42:45;1.95;;;0.50;;
51358;SDS011;37448;51.588;7.248;2022-12-29T02:47:28;1.63;;;0.40;;
51358;SDS011;37448;51.588;7.248;2022-12-29T02:49:34;1.77;;;0.40;;
51358;SDS011;37448;51.588;7.248;2022-12-29T02:53:45;2.08;;;0.50;;
51358;SDS011;37448;51.588;7.248;2022-12-29T02:56:05;1.15;;;0.60;;
51358;SDS011;37448;51.588;7.248;2022-12-29T03:00:10;1.60;;;0.70;;
51358;SDS011;37448;51.588;7.248;2022-12-29T03:02:15;1.98;;;0.60;;
51358;SDS011;37448;51.588;7.248;2022-12-29T03:04:26;1.88;;;0.70;;
51358;SDS011;37448;51.588;7.248;2022-12-29T03:08:58;2.75;;;0.50;;
51358;SDS011;37448;51.588;7.248;2022-12-29T03:11:07;1.90;;;0.50;;
51358;SDS011;37448;51.588;7.248;2022-12-29T03:13:39;2.72;;;0.70;;
51358;SDS011;37448;51.588;7.248;2022-12-29T03:18:20;1.40;;;0.60;;
51358;SDS011;37448;51.588;7.248;2022-12-29T03:20:26;3.25;;;0.52;;
51358;SDS011;37448;51.588;7.248;2022-12-29T03:22:34;3.30;;;0.77;;
51358;SDS011;37448;51.588;7.248;2022-12-29T03:24:43;2.40;;;0.60;;
51358;SDS011;37448;51.588;7.248;2022-12-29T03:26:47;1.80;;;0.65;;
51358;SDS011;37448;51.588;7.248;2022-12-29T03:28:53;1.77;;;0.60;;
51358;SDS011;37448;51.588;7.248;2022-12-29T03:30:59;5.63;;;0.93;;
51358;SDS011;37448;51.588;7.248;2022-12-29T03:33:02;4.45;;;0.70;;
51358;SDS011;37448;51.588;7.248;2022-12-29T03:35:07;2.03;;;0.70;;
51358;SDS011;37448;51.588;7.248;2022-12-29T03:37:11;1.83;;;0.73;;
51358;SDS011;37448;51.588;7.248;2022-12-29T03:39:14;2.60;;;0.80;;
51358;SDS011;37448;51.588;7.248;2022-12-29T03:41:17;2.83;;;0.70;;
51358;SDS011;37448;51.588;7.248;2022-12-29T03:43:20;1.67;;;0.55;;
51358;SDS011;37448;51.588;7.248;2022-12-29T03:45:21;1.88;;;0.90;;
51358;SDS011;37448;51.588;7.248;2022-12-29T03:47:22;2.72;;;0.70;;
51358;SDS011;37448;51.588;7.248;2022-12-29T03:49:24;1.90;;;0.75;;
51358;SDS011;37448;51.588;7.248;2022-12-29T03:51:25;2.15;;;0.70;;
51358;SDS011;37448;51.588;7.248;2022-12-29T03:53:27;1.77;;;0.60;;
51358;SDS011;37448;51.588;7.248;2022-12-29T03:55:27;1.58;;;0.57;;
51358;SDS011;37448;51.588;7.248;2022-12-29T03:57:28;2.28;;;0.80;;
51358;SDS011;37448;51.588;7.248;2022-12-29T03:59:35;2.08;;;0.70;;
51358;SDS011;37448;51.588;7.248;2022-12-29T04:01:35;4.57;;;1.10;;
51358;SDS011;37448;51.588;7.248;2022-12-29T04:03:36;0.70;;;0.40;;
51358;SDS011;37448;51.588;7.248;2022-12-29T04:05:36;2.50;;;0.68;;
51358;SDS011;37448;51.588;7.248;2022-12-29T04:07:37;3.42;;;0.75;;
51358;SDS011;37448;51.588;7.248;2022-12-29T04:09:38;2.22;;;0.70;;
51358;SDS011;37448;51.588;7.248;2022-12-29T04:11:38;2.03;;;0.70;;
51358;SDS011;37448;51.588;7.248;2022-12-29T04:13:39;2.80;;;0.98;;
51358;SDS011;37448;51.588;7.248;2022-12-29T04:17:45;1.70;;;0.70;;
51358;SDS011;37448;51.588;7.248;2022-12-29T04:19:46;3.45;;;0.68;;
51358;SDS011;37448;51.588;7.248;2022-12-29T04:21:46;3.10;;;1.00;;
51358;SDS011;37448;51.588;7.248;2022-12-29T04:23:47;1.80;;;0.57;;
51358;SDS011;37448;51.588;7.248;2022-12-29T04:25:49;2.78;;;0.60;;
51358;SDS011;37448;51.588;7.248;2022-12-29T04:27:50;1.60;;;0.60;;
51358;SDS011;37448;51.588;7.248;2022-12-29T04:30:09;2.83;;;0.60;;
51358;SDS011;37448;51.588;7.248;2022-12-29T04:32:30;4.10;;;0.85;;
51358;SDS011;37448;51.588;7.248;2022-12-29T04:34:31;0.68;;;0.40;;
51358;SDS011;37448;51.588;7.248;2022-12-29T04:36:31;2.75;;;0.60;;
51358;SDS011;37448;51.588;7.248;2022-12-29T04:38:31;1.63;;;0.60;;
51358;SDS011;37448;51.588;7.248;2022-12-29T04:40:34;1.10;;;0.55;;
51358;SDS011;37448;51.588;7.248;2022-12-29T04:42:34;1.77;;;0.50;;
51358;SDS011;37448;51.588;7.248;2022-12-29T04:44:35;3.10;;;0.60;;
51358;SDS011;37448;51.588;7.248;2022-12-29T04:48:57;2.25;;;0.50;;
51358;SDS011;37448;51.588;7.248;2022-12-29T04:51:15;1.27;;;0.63;;
51358;SDS011;37448;51.588;7.248;2022-12-29T04:53:16;2.67;;;0.52;;
51358;SDS011;37448;51.588;7.248;2022-12-29T04:55:17;2.72;;;0.50;;
51358;SDS011;37448;51.588;7.248;2022-12-29T04:57:17;1.70;;;0.68;;
51358;SDS011;37448;51.588;7.248;2022-12-29T04:59:23;0.88;;;0.63;;
51358;SDS011;37448;51.588;7.248;2022-12-29T05:01:27;2.15;;;0.50;;
51358;SDS011;37448;51.588;7.248;2022-12-29T05:03:27;1.85;;;0.50;;
51358;SDS011;37448;51.588;7.248;2022-12-29T05:05:28;1.23;;;0.50;;
51358;SDS011;37448;51.588;7.248;2022-12-29T05:07:29;2.42;;;0.45;;
51358;SDS011;37448;51.588;7.248;2022-12-29T05:09:29;1.42;;;0.57;;
51358;SDS011;37448;51.588;7.248;2022-12-29T05:11:30;0.90;;;0.40;;
51358;SDS011;37448;51.588;7.248;2022-12-29T05:13:32;1.60;;;0.65;;
51358;SDS011;37448;51.588;7.248;2022-12-29T05:15:32;1.45;;;0.50;;
51358;SDS011;37448;51.588;7.248;2022-12-29T05:17:33;1.52;;;0.45;;
51358;SDS011;37448;51.588;7.248;2022-12-29T05:19:33;2.20;;;0.50;;
51358;SDS011;37448;51.588;7.248;2022-12-29T05:21:34;1.33;;;0.47;;
51358;SDS011;37448;51.588;7.248;2022-12-29T05:23:34;2.53;;;0.52;;
51358;SDS011;37448;51.588;7.248;2022-12-29T05:25:39;1.15;;;0.32;;
51358;SDS011;37448;51.588;7.248;2022-12-29T05:27:51;2.72;;;0.60;;
51358;SDS011;37448;51.588;7.248;2022-12-29T05:30:11;2.10;;;0.60;;
51358;SDS011;37448;51.588;7.248;2022-12-29T05:32:12;2.05;;;0.47;;
51358;SDS011;37448;51.588;7.248;2022-12-29T05:34:13;4.53;;;0.60;;
51358;SDS011;37448;51.588;7.248;2022-12-29T05:36:14;1.00;;;0.70;;
51358;SDS011;37448;51.588;7.248;2022-12-29T05:38:19;3.28;;;0.88;;
51358;SDS011;37448;51.588;7.248;2022-12-29T05:40:19;2.13;;;0.60;;
51358;SDS011;37448;51.588;7.248;2022-12-29T05:42:21;2.17;;;0.50;;
51358;SDS011;37448;51.588;7.248;2022-12-29T05:44:44;2.53;;;0.52;;
51358;SDS011;37448;51.588;7.248;2022-12-29T05:47:07;3.58;;;0.60;;
51358;SDS011;37448;51.588;7.248;2022-12-29T05:49:33;1.08;;;0.63;;
51358;SDS011;37448;51.588;7.248;2022-12-29T05:51:43;2.17;;;0.50;;
51358;SDS011;37448;51.588;7.248;2022-12-29T05:53:43;3.22;;;0.65;;
51358;SDS011;37448;51.588;7.248;2022-12-29T05:55:44;3.25;;;0.52;;
51358;SDS011;37448;51.588;7.248;2022-12-29T05:57:47;1.70;;;0.60;;
51358;SDS011;37448;51.588;7.248;2022-12-29T05:59:49;3.22;;;0.70;;
51358;SDS011;37448;51.588;7.248;2022-12-29T06:01:50;4.15;;;0.68;;
51358;SDS011;37448;51.588;7.248;2022-12-29T06:03:50;3.85;;;0.60;;
51358;SDS011;37448;51.588;7.248;2022-12-29T06:05:53;2.67;;;0.60;;
51358;SDS011;37448;51.588;7.248;2022-12-29T06:07:54;3.88;;;0.50;;
51358;SDS011;37448;51.588;7.248;2022-12-29T06:09:56;1.40;;;0.55;;
51358;SDS011;37448;51.588;7.248;2022-12-29T06:11:56;3.83;;;1.00;;
51358;SDS011;37448;51.588;7.248;2022-12-29T06:13:57;1.80;;;0.70;;
51358;SDS011;37448;51.588;7.248;2022-12-29T06:15:58;1.70;;;0.60;;
51358;SDS011;37448;51.588;7.248;2022-12-29T06:18:00;2.10;;;0.73;;
51358;SDS011;37448;51.588;7.248;2022-12-29T06:20:01;2.22;;;0.60;;
51358;SDS011;37448;51.588;7.248;2022-12-29T06:22:01;2.35;;;0.68;;
51358;SDS011;37448;51.588;7.248;2022-12-29T06:24:02;4.93;;;1.08;;
51358;SDS011;37448;51.588;7.248;2022-12-29T06:26:03;2.53;;;0.60;;
51358;SDS011;37448;51.588;7.248;2022-12-29T06:28:04;1.52;;;0.70;;
51358;SDS011;37448;51.588;7.248;2022-12-29T06:30:05;5.32;;;0.90;;
51358;SDS011;37448;51.588;7.248;2022-12-29T06:32:06;3.25;;;0.82;;
51358;SDS011;37448;51.588;7.248;2022-12-29T06:34:07;2.72;;;0.90;;
51358;SDS011;37448;51.588;7.248;2022-12-29T06:36:07;2.35;;;0.70;;
51358;SDS011;37448;51.588;7.248;2022-12-29T06:38:08;3.25;;;0.88;;
51358;SDS011;37448;51.588;7.248;2022-12-29T06:40:09;2.33;;;0.70;;
51358;SDS011;37448;51.588;7.248;2022-12-29T06:42:29;4.57;;;0.82;;
51358;SDS011;37448;51.588;7.248;2022-12-29T06:44:43;1.83;;;0.63;;
51358;SDS011;37448;51.588;7.248;2022-12-29T06:46:44;2.30;;;0.90;;
51358;SDS011;37448;51.588;7.248;2022-12-29T06:48:44;5.93;;;1.42;;
51358;SDS011;37448;51.588;7.248;2022-12-29T06:50:45;3.38;;;0.80;;
51358;SDS011;37448;51.588;7.248;2022-12-29T06:52:45;2.50;;;0.60;;
51358;SDS011;37448;51.588;7.248;2022-12-29T06:54:45;4.00;;;0.93;;
51358;SDS011;37448;51.588;7.248;2022-12-29T06:56:46;2.83;;;0.60;;
51358;SDS011;37448;51.588;7.248;2022-12-29T06:58:46;5.60;;;1.48;;
51358;SDS011;37448;51.588;7.248;2022-12-29T07:00:47;2.55;;;0.80;;
51358;SDS011;37448;51.588;7.248;2022-12-29T07:02:47;6.22;;;0.85;;
51358;SDS011;37448;51.588;7.248;2022-12-29T07:04:48;3.38;;;0.90;;
51358;SDS011;37448;51.588;7.248;2022-12-29T07:06:48;4.47;;;0.98;;
51358;SDS011;37448;51.588;7.248;2022-12-29T07:08:48;3.35;;;0.80;;
51358;SDS011;37448;51.588;7.248;2022-12-29T07:10:49;2.53;;;0.70;;
51358;SDS011;37448;51.588;7.248;2022-12-29T07:12:50;3.05;;;0.68;;
51358;SDS011;37448;51.588;7.248;2022-12-29T07:14:50;3.30;;;0.90;;
51358;SDS011;37448;51.588;7.248;2022-12-29T07:16:51;5.40;;;0.80;;
51358;SDS011;37448;51.588;7.248;2022-12-29T07:18:51;2.15;;;0.60;;
51358;SDS011;37448;51.588;7.248;2022-12-29T07:20:52;2.72;;;0.70;;
51358;SDS011;37448;51.588;7.248;2022-12-29T07:22:52;3.10;;;0.70;;
51358;SDS011;37448;51.588;7.248;2022-12-29T07:24:53;3.50;;;0.77;;
51358;SDS011;37448;51.588;7.248;2022-12-29T07:26:53;4.97;;;1.20;;
51358;SDS011;37448;51.588;7.248;2022-12-29T07:28:54;3.40;;;0.73;;
51358;SDS011;37448;51.588;7.248;2022-12-29T07:30:55;4.30;;;0.75;;
51358;SDS011;37448;51.588;7.248;2022-12-29T07:32:55;4.53;;;1.00;;
51358;SDS011;37448;51.588;7.248;2022-12-29T07:34:57;3.35;;;0.60;;
51358;SDS011;37448;51.588;7.248;2022-12-29T07:36:57;4.53;;;1.10;;
51358;SDS011;37448;51.588;7.248;2022-12-29T07:38:57;4.93;;;0.90;;
51358;SDS011;37448;51.588;7.248;2022-12-29T07:40:58;4.95;;;1.00;;
51358;SDS011;37448;51.588;7.248;2022-12-29T07:42:59;3.60;;;0.70;;
51358;SDS011;37448;51.588;7.248;2022-12-29T07:45:06;3.30;;;0.60;;
51358;SDS011;37448;51.588;7.248;2022-12-29T07:47:37;4.40;;;0.73;;
51358;SDS011;37448;51.588;7.248;2022-12-29T07:49:37;3.70;;;0.65;;
51358;SDS011;37448;51.588;7.248;2022-12-29T07:51:37;4.65;;;0.70;;
51358;SDS011;37448;51.588;7.248;2022-12-29T07:53:38;3.72;;;0.73;;
51358;SDS011;37448;51.588;7.248;2022-12-29T07:55:38;4.00;;;1.08;;
51358;SDS011;37448;51.588;7.248;2022-12-29T07:57:38;4.75;;;0.93;;
51358;SDS011;37448;51.588;7.248;2022-12-29T07:59:39;6.88;;;0.75;;
51358;SDS011;37448;51.588;7.248;2022-12-29T08:01:39;3.70;;;0.68;;
51358;SDS011;37448;51.588;7.248;2022-12-29T08:03:40;7.88;;;1.83;;
51358;SDS011;37448;51.588;7.248;2022-12-29T08:05:41;6.53;;;1.10;;
51358;SDS011;37448;51.588;7.248;2022-12-29T08:07:44;3.20;;;0.70;;
51358;SDS011;37448;51.588;7.248;2022-12-29T08:09:45;3.90;;;0.80;;
51358;SDS011;37448;51.588;7.248;2022-12-29T08:11:46;5.72;;;0.80;;
51358;SDS011;37448;51.588;7.248;2022-12-29T08:13:46;5.13;;;0.70;;
51358;SDS011;37448;51.588;7.248;2022-12-29T08:15:47;3.78;;;0.60;;
51358;SDS011;37448;51.588;7.248;2022-12-29T08:17:47;4.10;;;0.90;;
51358;SDS011;37448;51.588;7.248;2022-12-29T08:19:47;5.40;;;1.00;;
51358;SDS011;37448;51.588;7.248;2022-12-29T08:21:48;7.60;;;1.13;;
51358;SDS011;37448;51.588;7.248;2022-12-29T08:23:48;6.35;;;0.73;;
51358;SDS011;37448;51.588;7.248;2022-12-29T08:25:56;3.35;;;0.85;;
51358;SDS011;37448;51.588;7.248;2022-12-29T08:27:58;5.30;;;0.90;;
51358;SDS011;37448;51.588;7.248;2022-12-29T08:29:58;5.22;;;0.80;;
51358;SDS011;37448;51.588;7.248;2022-12-29T08:32:00;5.05;;;0.82;;
51358;SDS011;37448;51.588;7.248;2022-12-29T08:34:00;6.30;;;0.90;;
51358;SDS011;37448;51.588;7.248;2022-12-29T08:36:03;6.53;;;1.05;;
51358;SDS011;37448;51.588;7.248;2022-12-29T08:38:06;5.53;;;0.85;;
51358;SDS011;37448;51.588;7.248;2022-12-29T08:40:06;5.60;;;1.35;;
51358;SDS011;37448;51.588;7.248;2022-12-29T08:42:07;5.80;;;0.88;;
51358;SDS011;37448;51.588;7.248;2022-12-29T08:44:08;5.82;;;0.98;;
51358;SDS011;37448;51.588;7.248;2022-12-29T08:46:08;5.72;;;1.13;;
51358;SDS011;37448;51.588;7.248;2022-12-29T08:48:09;4.45;;;0.90;;
51358;SDS011;37448;51.588;7.248;2022-12-29T08:50:09;7.22;;;0.88;;
51358;SDS011;37448;51.588;7.248;2022-12-29T08:52:09;4.72;;;0.80;;
51358;SDS011;37448;51.588;7.248;2022-12-29T08:54:10;4.80;;;1.15;;
51358;SDS011;37448;51.588;7.248;2022-12-29T08:56:10;8.30;;;1.02;;
51358;SDS011;37448;51.588;7.248;2022-12-29T08:58:23;8.32;;;1.10;;
51358;SDS011;37448;51.588;7.248;2022-12-29T09:00:24;4.70;;;1.05;;
51358;SDS011;37448;51.588;7.248;2022-12-29T09:02:25;4.10;;;1.00;;
51358;SDS011;37448;51.588;7.248;2022-12-29T09:04:26;8.10;;;1.30;;
51358;SDS011;37448;51.588;7.248;2022-12-29T09:06:27;5.75;;;1.10;;
51358;SDS011;37448;51.588;7.248;2022-12-29T09:08:27;4.07;;;1.00;;
51358;SDS011;37448;51.588;7.248;2022-12-29T09:10:28;5.22;;;0.82;;
51358;SDS011;37448;51.588;7.248;2022-12-29T09:12:28;3.88;;;0.77;;
51358;SDS011;37448;51.588;7.248;2022-12-29T09:14:29;5.10;;;0.95;;
51358;SDS011;37448;51.588;7.248;2022-12-29T09:16:29;9.15;;;1.02;;
51358;SDS011;37448;51.588;7.248;2022-12-29T09:18:30;4.75;;;1.02;;
51358;SDS011;37448;51.588;7.248;2022-12-29T09:20:31;5.60;;;0.90;;
51358;SDS011;37448;51.588;7.248;2022-12-29T09:22:31;5.72;;;1.60;;
51358;SDS011;37448;51.588;7.248;2022-12-29T09:24:32;7.07;;;1.40;;
51358;SDS011;37448;51.588;7.248;2022-12-29T09:26:32;4.93;;;1.25;;
51358;SDS011;37448;51.588;7.248;2022-12-29T09:28:32;7.40;;;1.15;;
51358;SDS011;37448;51.588;7.248;2022-12-29T09:30:33;5.10;;;0.90;;
51358;SDS011;37448;51.588;7.248;2022-12-29T09:32:34;6.05;;;1.10;;
51358;SDS011;37448;51.588;7.248;2022-12-29T09:34:34;3.15;;;0.70;;
51358;SDS011;37448;51.588;7.248;2022-12-29T09:36:35;7.13;;;1.00;;
51358;SDS011;37448;51.588;7.248;2022-12-29T09:38:35;5.32;;;0.80;;
51358;SDS011;37448;51.588;7.248;2022-12-29T09:40:36;6.60;;;0.98;;
51358;SDS011;37448;51.588;7.248;2022-12-29T09:42:38;5.00;;;0.90;;
51358;SDS011;37448;51.588;7.248;2022-12-29T09:47:16;4.53;;;1.00;;
51358;SDS011;37448;51.588;7.248;2022-12-29T09:49:21;5.15;;;1.02;;
51358;SDS011;37448;51.588;7.248;2022-12-29T09:51:57;5.85;;;1.25;;
51358;SDS011;37448;51.588;7.248;2022-12-29T09:54:19;6.18;;;1.10;;
51358;SDS011;37448;51.588;7.248;2022-12-29T09:56:27;7.60;;;1.25;;
51358;SDS011;37448;51.588;7.248;2022-12-29T10:02:54;6.53;;;1.00;;
51358;SDS011;37448;51.588;7.248;2022-12-29T10:04:59;7.97;;;1.75;;
51358;SDS011;37448;51.588;7.248;2022-12-29T10:07:02;9.55;;;1.15;;
51358;SDS011;37448;51.588;7.248;2022-12-29T10:09:15;7.28;;;1.13;;
51358;SDS011;37448;51.588;7.248;2022-12-29T10:11:35;6.35;;;1.25;;
51358;SDS011;37448;51.588;7.248;2022-12-29T10:24:57;4.03;;;0.90;;
51358;SDS011;37448;51.588;7.248;2022-12-29T10:27:02;9.93;;;1.05;;
51358;SDS011;37448;51.588;7.248;2022-12-29T10:29:04;6.50;;;2.33;;
51358;SDS011;37448;51.588;7.248;2022-12-29T10:31:25;7.95;;;1.90;;
51358;SDS011;37448;51.588;7.248;2022-12-29T10:33:37;9.43;;;1.95;;
51358;SDS011;37448;51.588;7.248;2022-12-29T10:35:41;5.28;;;1.20;;
51358;SDS011;37448;51.588;7.248;2022-12-29T10:37:45;4.43;;;1.08;;
51358;SDS011;37448;51.588;7.248;2022-12-29T10:39:49;6.13;;;0.90;;
51358;SDS011;37448;51.588;7.248;2022-12-29T10:41:54;6.38;;;1.02;;
51358;SDS011;37448;51.588;7.248;2022-12-29T10:43:56;7.53;;;1.13;;
51358;SDS011;37448;51.588;7.248;2022-12-29T10:45:59;7.07;;;0.93;;
51358;SDS011;37448;51.588;7.248;2022-12-29T10:48:09;5.18;;;0.90;;
51358;SDS011;37448;51.588;7.248;2022-12-29T10:50:17;5.55;;;1.48;;
51358;SDS011;37448;51.588;7.248;2022-12-29T10:52:18;5.55;;;0.95;;
51358;SDS011;37448;51.588;7.248;2022-12-29T10:54:29;11.23;;;1.83;;
51358;SDS011;37448;51.588;7.248;2022-12-29T10:58:45;9.73;;;1.88;;
51358;SDS011;37448;51.588;7.248;2022-12-29T11:00:49;8.57;;;1.30;;
51358;SDS011;37448;51.588;7.248;2022-12-29T11:06:54;8.90;;;1.48;;
51358;SDS011;37448;51.588;7.248;2022-12-29T11:08:59;5.20;;;0.80;;
51358;SDS011;37448;51.588;7.248;2022-12-29T11:11:07;9.05;;;1.13;;
51358;SDS011;37448;51.588;7.248;2022-12-29T11:15:24;6.22;;;1.42;;
51358;SDS011;37448;51.588;7.248;2022-12-29T11:17:25;3.17;;;1.10;;
51358;SDS011;37448;51.588;7.248;2022-12-29T11:19:27;9.13;;;1.10;;
51358;SDS011;37448;51.588;7.248;2022-12-29T11:23:40;6.82;;;1.38;;
51358;SDS011;37448;51.588;7.248;2022-12-29T11:25:42;6.45;;;1.20;;
51358;SDS011;37448;51.588;7.248;2022-12-29T11:27:47;7.07;;;1.00;;
51358;SDS011;37448;51.588;7.248;2022-12-29T11:29:56;6.65;;;1.25;;
51358;SDS011;37448;51.588;7.248;2022-12-29T11:31:57;5.55;;;1.10;;
51358;SDS011;37448;51.588;7.248;2022-12-29T11:33:58;5.55;;;0.90;;
51358;SDS011;37448;51.588;7.248;2022-12-29T11:36:27;7.57;;;1.38;;
51358;SDS011;37448;51.588;7.248;2022-12-29T11:40:50;9.63;;;1.00;;
51358;SDS011;37448;51.588;7.248;2022-12-29T11:42:51;6.53;;;1.25;;
51358;SDS011;37448;51.588;7.248;2022-12-29T11:44:54;5.80;;;1.17;;
51358;SDS011;37448;51.588;7.248;2022-12-29T11:46:55;4.35;;;0.98;;
51358;SDS011;37448;51.588;7.248;2022-12-29T11:48:55;5.30;;;0.93;;
51358;SDS011;37448;51.588;7.248;2022-12-29T11:50:59;10.15;;;1.45;;
51358;SDS011;37448;51.588;7.248;2022-12-29T11:53:01;8.15;;;1.23;;
51358;SDS011;37448;51.588;7.248;2022-12-29T11:55:06;6.93;;;2.92;;
51358;SDS011;37448;51.588;7.248;2022-12-29T11:57:18;6.50;;;1.70;;
51358;SDS011;37448;51.588;7.248;2022-12-29T12:01:35;5.93;;;1.08;;
51358;SDS011;37448;51.588;7.248;2022-12-29T12:03:40;6.13;;;1.33;;
51358;SDS011;37448;51.588;7.248;2022-12-29T12:08:17;7.78;;;1.17;;
51358;SDS011;37448;51.588;7.248;2022-12-29T12:13:15;8.68;;;1.25;;
51358;SDS011;37448;51.588;7.248;2022-12-29T12:15:24;6.47;;;1.60;;
51358;SDS011;37448;51.588;7.248;2022-12-29T12:18:09;10.55;;;1.50;;
51358;SDS011;37448;51.588;7.248;2022-12-29T12:22:38;6.90;;;1.25;;
51358;SDS011;37448;51.588;7.248;2022-12-29T12:24:46;7.18;;;1.80;;
51358;SDS011;37448;51.588;7.248;2022-12-29T12:26:55;6.75;;;1.33;;
51358;SDS011;37448;51.588;7.248;2022-12-29T12:29:04;9.82;;;1.50;;
51358;SDS011;37448;51.588;7.248;2022-12-29T12:31:16;6.97;;;1.75;;
51358;SDS011;37448;51.588;7.248;2022-12-29T12:33:27;7.68;;;1.48;;
51358;SDS011;37448;51.588;7.248;2022-12-29T12:37:41;5.97;;;1.35;;
51358;SDS011;37448;51.588;7.248;2022-12-29T12:53:22;4.88;;;1.00;;
51358;SDS011;37448;51.588;7.248;2022-12-29T12:57:47;7.18;;;1.13;;
51358;SDS011;37448;51.588;7.248;2022-12-29T13:00:13;7.60;;;1.58;;
51358;SDS011;37448;51.588;7.248;2022-12-29T13:02:27;4.93;;;1.45;;
51358;SDS011;37448;51.588;7.248;2022-12-29T13:04:42;5.05;;;1.00;;
51358;SDS011;37448;51.588;7.248;2022-12-29T13:09:53;10.38;;;1.50;;
51358;SDS011;37448;51.588;7.248;2022-12-29T13:17:06;5.25;;;1.08;;
51358;SDS011;37448;51.588;7.248;2022-12-29T13:19:30;6.57;;;1.17;;
51358;SDS011;37448;51.588;7.248;2022-12-29T13:24:15;10.80;;;1.45;;
51358;SDS011;37448;51.588;7.248;2022-12-29T13:26:22;4.50;;;0.90;;
51358;SDS011;37448;51.588;7.248;2022-12-29T13:30:57;8.70;;;2.00;;
51358;SDS011;37448;51.588;7.248;2022-12-29T13:37:57;10.82;;;2.22;;
51358;SDS011;37448;51.588;7.248;2022-12-29T13:40:04;5.03;;;1.38;;
51358;SDS011;37448;51.588;7.248;2022-12-29T13:42:13;11.65;;;2.05;;
51358;SDS011;37448;51.588;7.248;2022-12-29T13:44:19;7.85;;;2.10;;
51358;SDS011;37448;51.588;7.248;2022-12-29T13:46:26;10.73;;;1.48;;
51358;SDS011;37448;51.588;7.248;2022-12-29T13:48:35;9.93;;;1.75;;
51358;SDS011;37448;51.588;7.248;2022-12-29T13:50:38;6.43;;;1.65;;
51358;SDS011;37448;51.588;7.248;2022-12-29T14:02:16;9.85;;;1.83;;
51358;SDS011;37448;51.588;7.248;2022-12-29T14:04:27;5.57;;;1.25;;
51358;SDS011;37448;51.588;7.248;2022-12-29T14:06:30;6.20;;;1.40;;
51358;SDS011;37448;51.588;7.248;2022-12-29T14:08:33;6.00;;;1.52;;
51358;SDS011;37448;51.588;7.248;2022-12-29T14:10:36;8.02;;;1.40;;
51358;SDS011;37448;51.588;7.248;2022-12-29T14:12:39;8.20;;;1.17;;
51358;SDS011;37448;51.588;7.248;2022-12-29T14:14:41;11.85;;;1.80;;
51358;SDS011;37448;51.588;7.248;2022-12-29T14:16:42;9.05;;;1.25;;
51358;SDS011;37448;51.588;7.248;2022-12-29T14:18:43;4.93;;;1.30;;
51358;SDS011;37448;51.588;7.248;2022-12-29T14:20:52;8.65;;;1.98;;
51358;SDS011;37448;51.588;7.248;2022-12-29T14:22:59;8.38;;;1.40;;
51358;SDS011;37448;51.588;7.248;2022-12-29T14:25:23;10.23;;;1.73;;
51358;SDS011;37448;51.588;7.248;2022-12-29T14:27:56;7.97;;;1.50;;
51358;SDS011;37448;51.588;7.248;2022-12-29T14:29:56;9.05;;;1.60;;
51358;SDS011;37448;51.588;7.248;2022-12-29T14:31:56;7.25;;;1.75;;
51358;SDS011;37448;51.588;7.248;2022-12-29T14:36:18;7.30;;;1.60;;
51358;SDS011;37448;51.588;7.248;2022-12-29T14:38:26;7.55;;;1.45;;
51358;SDS011;37448;51.588;7.248;2022-12-29T14:40:29;11.05;;;1.80;;
51358;SDS011;37448;51.588;7.248;2022-12-29T14:42:29;9.52;;;1.77;;